sensor_id;sensor_type;location;lat;lon;timestamp;P1;durP1;ratioP1;P2;durP2;ratioP2
23270;SDS011;11804;51.118;17.058;2022-12-17T00:00:16;172.43;;;73.13;;
23270;SDS011;11804;51.118;17.058;2022-12-17T00:03:02;161.03;;;69.83;;
23270;SDS011;11804;51.118;17.058;2022-12-17T00:05:47;168.80;;;72.67;;
23270;SDS011;11804;51.118;17.058;2022-12-17T00:08:33;168.63;;;72.73;;
23270;SDS011;11804;51.118;17.058;2022-12-17T00:11:17;168.53;;;69.90;;
23270;SDS011;11804;51.118;17.058;2022-12-17T00:14:04;173.10;;;72.33;;
23270;SDS011;11804;51.118;17.058;2022-12-17T00:16:50;167.33;;;71.80;;
23270;SDS011;11804;51.118;17.058;2022-12-17T00:19:39;171.80;;;72.50;;
23270;SDS011;11804;51.118;17.058;2022-12-17T00:22:24;172.63;;;69.43;;
23270;SDS011;11804;51.118;17.058;2022-12-17T00:25:09;174.10;;;72.07;;
23270;SDS011;11804;51.118;17.058;2022-12-17T00:27:55;167.37;;;70.87;;
23270;SDS011;11804;51.118;17.058;2022-12-17T00:30:40;170.40;;;70.50;;
23270;SDS011;11804;51.118;17.058;2022-12-17T00:33:23;167.20;;;70.60;;
23270;SDS011;11804;51.118;17.058;2022-12-17T00:36:08;170.20;;;71.73;;
23270;SDS011;11804;51.118;17.058;2022-12-17T00:38:54;172.87;;;69.43;;
23270;SDS011;11804;51.118;17.058;2022-12-17T00:41:40;167.53;;;70.10;;
23270;SDS011;11804;51.118;17.058;2022-12-17T00:44:25;174.23;;;72.67;;
23270;SDS011;11804;51.118;17.058;2022-12-17T00:47:11;170.33;;;70.03;;
23270;SDS011;11804;51.118;17.058;2022-12-17T00:49:58;168.63;;;71.50;;
23270;SDS011;11804;51.118;17.058;2022-12-17T00:52:45;178.07;;;73.97;;
23270;SDS011;11804;51.118;17.058;2022-12-17T00:55:31;176.20;;;72.60;;
23270;SDS011;11804;51.118;17.058;2022-12-17T00:58:20;169.33;;;71.73;;
23270;SDS011;11804;51.118;17.058;2022-12-17T01:01:05;171.57;;;71.20;;
23270;SDS011;11804;51.118;17.058;2022-12-17T01:03:51;174.87;;;74.70;;
23270;SDS011;11804;51.118;17.058;2022-12-17T01:06:36;169.67;;;70.07;;
23270;SDS011;11804;51.118;17.058;2022-12-17T01:09:23;170.77;;;70.20;;
23270;SDS011;11804;51.118;17.058;2022-12-17T01:12:11;178.07;;;73.20;;
23270;SDS011;11804;51.118;17.058;2022-12-17T01:14:56;166.77;;;72.03;;
23270;SDS011;11804;51.118;17.058;2022-12-17T01:17:42;176.07;;;71.43;;
23270;SDS011;11804;51.118;17.058;2022-12-17T01:20:27;173.50;;;72.23;;
23270;SDS011;11804;51.118;17.058;2022-12-17T01:23:13;180.67;;;74.13;;
23270;SDS011;11804;51.118;17.058;2022-12-17T01:25:59;175.80;;;71.60;;
23270;SDS011;11804;51.118;17.058;2022-12-17T01:28:44;170.00;;;70.03;;
23270;SDS011;11804;51.118;17.058;2022-12-17T01:31:30;164.87;;;70.90;;
23270;SDS011;11804;51.118;17.058;2022-12-17T01:34:15;179.83;;;70.97;;
23270;SDS011;11804;51.118;17.058;2022-12-17T01:37:01;171.40;;;70.53;;
23270;SDS011;11804;51.118;17.058;2022-12-17T01:39:46;171.13;;;71.73;;
23270;SDS011;11804;51.118;17.058;2022-12-17T01:42:39;172.77;;;71.40;;
23270;SDS011;11804;51.118;17.058;2022-12-17T01:45:27;177.07;;;69.60;;
23270;SDS011;11804;51.118;17.058;2022-12-17T01:48:22;165.00;;;69.57;;
23270;SDS011;11804;51.118;17.058;2022-12-17T01:51:10;169.03;;;69.93;;
23270;SDS011;11804;51.118;17.058;2022-12-17T01:53:58;167.60;;;67.93;;
23270;SDS011;11804;51.118;17.058;2022-12-17T01:56:47;171.00;;;72.43;;
23270;SDS011;11804;51.118;17.058;2022-12-17T02:02:33;174.40;;;73.90;;
23270;SDS011;11804;51.118;17.058;2022-12-17T02:05:19;178.73;;;74.53;;
23270;SDS011;11804;51.118;17.058;2022-12-17T02:08:21;182.37;;;76.87;;
23270;SDS011;11804;51.118;17.058;2022-12-17T02:11:21;182.77;;;74.17;;
23270;SDS011;11804;51.118;17.058;2022-12-17T02:14:22;179.83;;;73.87;;
23270;SDS011;11804;51.118;17.058;2022-12-17T02:17:13;177.33;;;75.60;;
23270;SDS011;11804;51.118;17.058;2022-12-17T02:23:11;182.77;;;75.47;;
23270;SDS011;11804;51.118;17.058;2022-12-17T02:26:13;188.17;;;75.67;;
23270;SDS011;11804;51.118;17.058;2022-12-17T02:28:53;182.07;;;76.10;;
23270;SDS011;11804;51.118;17.058;2022-12-17T02:31:43;190.90;;;77.30;;
23270;SDS011;11804;51.118;17.058;2022-12-17T02:34:31;184.20;;;74.67;;
23270;SDS011;11804;51.118;17.058;2022-12-17T02:37:18;183.10;;;75.33;;
23270;SDS011;11804;51.118;17.058;2022-12-17T02:40:05;186.33;;;74.87;;
23270;SDS011;11804;51.118;17.058;2022-12-17T02:42:51;184.93;;;75.60;;
23270;SDS011;11804;51.118;17.058;2022-12-17T02:45:38;184.90;;;74.17;;
23270;SDS011;11804;51.118;17.058;2022-12-17T02:48:24;184.03;;;75.63;;
23270;SDS011;11804;51.118;17.058;2022-12-17T02:51:10;180.40;;;73.77;;
23270;SDS011;11804;51.118;17.058;2022-12-17T02:54:00;191.67;;;75.93;;
23270;SDS011;11804;51.118;17.058;2022-12-17T02:56:45;179.80;;;73.83;;
23270;SDS011;11804;51.118;17.058;2022-12-17T02:59:30;183.23;;;73.87;;
23270;SDS011;11804;51.118;17.058;2022-12-17T03:02:16;182.97;;;74.33;;
23270;SDS011;11804;51.118;17.058;2022-12-17T03:05:02;178.60;;;73.90;;
23270;SDS011;11804;51.118;17.058;2022-12-17T03:07:48;180.60;;;73.30;;
23270;SDS011;11804;51.118;17.058;2022-12-17T03:10:33;192.30;;;77.13;;
23270;SDS011;11804;51.118;17.058;2022-12-17T03:13:23;193.67;;;75.07;;
23270;SDS011;11804;51.118;17.058;2022-12-17T03:16:14;182.70;;;72.20;;
23270;SDS011;11804;51.118;17.058;2022-12-17T03:19:01;184.37;;;74.57;;
23270;SDS011;11804;51.118;17.058;2022-12-17T03:21:47;183.20;;;71.87;;
23270;SDS011;11804;51.118;17.058;2022-12-17T03:24:34;182.80;;;73.17;;
23270;SDS011;11804;51.118;17.058;2022-12-17T03:27:19;186.87;;;73.60;;
23270;SDS011;11804;51.118;17.058;2022-12-17T03:30:05;182.67;;;71.90;;
23270;SDS011;11804;51.118;17.058;2022-12-17T03:32:51;192.87;;;74.17;;
23270;SDS011;11804;51.118;17.058;2022-12-17T03:35:38;190.20;;;74.53;;
23270;SDS011;11804;51.118;17.058;2022-12-17T03:38:23;191.27;;;74.20;;
23270;SDS011;11804;51.118;17.058;2022-12-17T03:41:09;186.13;;;70.57;;
23270;SDS011;11804;51.118;17.058;2022-12-17T03:43:55;182.67;;;69.70;;
23270;SDS011;11804;51.118;17.058;2022-12-17T03:46:41;187.13;;;70.93;;
23270;SDS011;11804;51.118;17.058;2022-12-17T03:49:26;193.33;;;72.57;;
23270;SDS011;11804;51.118;17.058;2022-12-17T03:52:11;180.90;;;72.33;;
23270;SDS011;11804;51.118;17.058;2022-12-17T03:54:57;187.70;;;73.70;;
23270;SDS011;11804;51.118;17.058;2022-12-17T03:57:42;201.37;;;71.77;;
23270;SDS011;11804;51.118;17.058;2022-12-17T04:00:28;190.50;;;69.60;;
23270;SDS011;11804;51.118;17.058;2022-12-17T04:03:13;196.53;;;72.70;;
23270;SDS011;11804;51.118;17.058;2022-12-17T04:05:59;172.23;;;69.27;;
23270;SDS011;11804;51.118;17.058;2022-12-17T04:08:46;187.17;;;69.67;;
23270;SDS011;11804;51.118;17.058;2022-12-17T04:11:31;180.73;;;69.53;;
23270;SDS011;11804;51.118;17.058;2022-12-17T04:14:17;193.80;;;72.83;;
23270;SDS011;11804;51.118;17.058;2022-12-17T04:17:02;181.53;;;69.70;;
23270;SDS011;11804;51.118;17.058;2022-12-17T04:19:47;176.67;;;68.17;;
23270;SDS011;11804;51.118;17.058;2022-12-17T04:22:33;178.73;;;69.77;;
23270;SDS011;11804;51.118;17.058;2022-12-17T04:28:22;177.63;;;66.93;;
23270;SDS011;11804;51.118;17.058;2022-12-17T04:31:08;176.33;;;68.10;;
23270;SDS011;11804;51.118;17.058;2022-12-17T04:33:53;166.17;;;65.33;;
23270;SDS011;11804;51.118;17.058;2022-12-17T04:36:39;180.57;;;68.03;;
23270;SDS011;11804;51.118;17.058;2022-12-17T04:39:25;184.23;;;69.13;;
23270;SDS011;11804;51.118;17.058;2022-12-17T04:42:10;180.30;;;66.97;;
23270;SDS011;11804;51.118;17.058;2022-12-17T04:44:55;180.40;;;65.63;;
23270;SDS011;11804;51.118;17.058;2022-12-17T04:47:42;167.17;;;61.67;;
23270;SDS011;11804;51.118;17.058;2022-12-17T04:50:28;162.07;;;63.50;;
23270;SDS011;11804;51.118;17.058;2022-12-17T04:53:14;178.33;;;67.10;;
23270;SDS011;11804;51.118;17.058;2022-12-17T04:55:59;172.70;;;64.43;;
23270;SDS011;11804;51.118;17.058;2022-12-17T04:58:45;177.57;;;66.40;;
23270;SDS011;11804;51.118;17.058;2022-12-17T05:01:15;166.10;;;64.77;;
23270;SDS011;11804;51.118;17.058;2022-12-17T05:04:00;167.93;;;63.50;;
23270;SDS011;11804;51.118;17.058;2022-12-17T05:06:46;170.40;;;63.33;;
23270;SDS011;11804;51.118;17.058;2022-12-17T05:09:32;155.90;;;60.50;;
23270;SDS011;11804;51.118;17.058;2022-12-17T05:12:19;160.73;;;60.37;;
23270;SDS011;11804;51.118;17.058;2022-12-17T05:15:04;171.30;;;63.37;;
23270;SDS011;11804;51.118;17.058;2022-12-17T05:17:53;171.10;;;63.53;;
23270;SDS011;11804;51.118;17.058;2022-12-17T05:20:40;167.57;;;62.07;;
23270;SDS011;11804;51.118;17.058;2022-12-17T05:23:26;163.30;;;61.77;;
23270;SDS011;11804;51.118;17.058;2022-12-17T05:26:19;165.47;;;63.20;;
23270;SDS011;11804;51.118;17.058;2022-12-17T05:29:06;167.57;;;61.43;;
23270;SDS011;11804;51.118;17.058;2022-12-17T05:31:57;157.00;;;62.23;;
23270;SDS011;11804;51.118;17.058;2022-12-17T05:34:42;166.87;;;63.53;;
23270;SDS011;11804;51.118;17.058;2022-12-17T05:37:30;163.50;;;63.13;;
23270;SDS011;11804;51.118;17.058;2022-12-17T05:40:15;164.80;;;60.53;;
23270;SDS011;11804;51.118;17.058;2022-12-17T05:43:01;161.43;;;60.47;;
23270;SDS011;11804;51.118;17.058;2022-12-17T05:45:49;163.60;;;59.53;;
23270;SDS011;11804;51.118;17.058;2022-12-17T05:48:35;158.20;;;60.83;;
23270;SDS011;11804;51.118;17.058;2022-12-17T05:51:21;151.73;;;60.83;;
23270;SDS011;11804;51.118;17.058;2022-12-17T05:54:07;159.93;;;61.03;;
23270;SDS011;11804;51.118;17.058;2022-12-17T05:56:53;158.40;;;59.63;;
23270;SDS011;11804;51.118;17.058;2022-12-17T05:59:38;151.37;;;59.67;;
23270;SDS011;11804;51.118;17.058;2022-12-17T06:02:24;164.93;;;62.20;;
23270;SDS011;11804;51.118;17.058;2022-12-17T06:05:11;158.63;;;61.20;;
23270;SDS011;11804;51.118;17.058;2022-12-17T06:08:08;153.73;;;59.37;;
23270;SDS011;11804;51.118;17.058;2022-12-17T06:10:53;156.93;;;60.00;;
23270;SDS011;11804;51.118;17.058;2022-12-17T06:13:40;160.13;;;60.93;;
23270;SDS011;11804;51.118;17.058;2022-12-17T06:16:25;166.73;;;59.60;;
23270;SDS011;11804;51.118;17.058;2022-12-17T06:19:11;152.70;;;58.17;;
23270;SDS011;11804;51.118;17.058;2022-12-17T06:21:58;154.27;;;59.17;;
23270;SDS011;11804;51.118;17.058;2022-12-17T06:24:44;165.53;;;61.07;;
23270;SDS011;11804;51.118;17.058;2022-12-17T06:27:29;163.13;;;62.03;;
23270;SDS011;11804;51.118;17.058;2022-12-17T06:30:15;156.83;;;59.37;;
23270;SDS011;11804;51.118;17.058;2022-12-17T06:33:04;152.87;;;57.87;;
23270;SDS011;11804;51.118;17.058;2022-12-17T06:35:52;159.03;;;58.27;;
23270;SDS011;11804;51.118;17.058;2022-12-17T06:38:39;158.07;;;58.20;;
23270;SDS011;11804;51.118;17.058;2022-12-17T06:41:25;157.10;;;60.97;;
23270;SDS011;11804;51.118;17.058;2022-12-17T06:44:10;157.27;;;57.83;;
23270;SDS011;11804;51.118;17.058;2022-12-17T06:46:56;157.20;;;59.73;;
23270;SDS011;11804;51.118;17.058;2022-12-17T06:49:42;154.43;;;58.30;;
23270;SDS011;11804;51.118;17.058;2022-12-17T06:52:27;154.93;;;58.70;;
23270;SDS011;11804;51.118;17.058;2022-12-17T06:55:13;153.60;;;57.83;;
23270;SDS011;11804;51.118;17.058;2022-12-17T06:57:59;156.00;;;58.07;;
23270;SDS011;11804;51.118;17.058;2022-12-17T07:00:45;152.50;;;57.13;;
23270;SDS011;11804;51.118;17.058;2022-12-17T07:03:31;158.70;;;58.97;;
23270;SDS011;11804;51.118;17.058;2022-12-17T07:06:16;157.17;;;58.63;;
23270;SDS011;11804;51.118;17.058;2022-12-17T07:09:01;157.93;;;58.10;;
23270;SDS011;11804;51.118;17.058;2022-12-17T07:11:47;159.00;;;57.40;;
23270;SDS011;11804;51.118;17.058;2022-12-17T07:14:33;162.03;;;56.60;;
23270;SDS011;11804;51.118;17.058;2022-12-17T07:17:18;145.40;;;54.90;;
23270;SDS011;11804;51.118;17.058;2022-12-17T07:20:04;151.30;;;54.87;;
23270;SDS011;11804;51.118;17.058;2022-12-17T07:22:53;147.47;;;55.47;;
23270;SDS011;11804;51.118;17.058;2022-12-17T07:25:40;146.20;;;55.70;;
23270;SDS011;11804;51.118;17.058;2022-12-17T07:28:26;148.47;;;56.10;;
23270;SDS011;11804;51.118;17.058;2022-12-17T07:31:11;152.40;;;53.70;;
23270;SDS011;11804;51.118;17.058;2022-12-17T07:33:56;137.53;;;53.60;;
23270;SDS011;11804;51.118;17.058;2022-12-17T07:36:42;138.30;;;52.17;;
23270;SDS011;11804;51.118;17.058;2022-12-17T07:39:28;146.17;;;53.30;;
23270;SDS011;11804;51.118;17.058;2022-12-17T07:42:13;142.80;;;52.47;;
23270;SDS011;11804;51.118;17.058;2022-12-17T07:44:59;138.93;;;51.13;;
23270;SDS011;11804;51.118;17.058;2022-12-17T07:47:51;128.80;;;49.30;;
23270;SDS011;11804;51.118;17.058;2022-12-17T07:50:39;128.57;;;49.23;;
23270;SDS011;11804;51.118;17.058;2022-12-17T07:53:24;133.87;;;50.17;;
23270;SDS011;11804;51.118;17.058;2022-12-17T07:56:10;132.67;;;51.43;;
23270;SDS011;11804;51.118;17.058;2022-12-17T07:59:00;126.80;;;49.03;;
23270;SDS011;11804;51.118;17.058;2022-12-17T08:01:42;124.53;;;48.00;;
23270;SDS011;11804;51.118;17.058;2022-12-17T08:04:28;120.40;;;47.17;;
23270;SDS011;11804;51.118;17.058;2022-12-17T08:07:14;128.90;;;50.73;;
23270;SDS011;11804;51.118;17.058;2022-12-17T08:10:00;134.97;;;51.27;;
23270;SDS011;11804;51.118;17.058;2022-12-17T08:12:57;138.63;;;51.30;;
23270;SDS011;11804;51.118;17.058;2022-12-17T08:15:44;126.13;;;48.50;;
23270;SDS011;11804;51.118;17.058;2022-12-17T08:18:30;139.63;;;54.57;;
23270;SDS011;11804;51.118;17.058;2022-12-17T08:21:16;131.80;;;50.83;;
23270;SDS011;11804;51.118;17.058;2022-12-17T08:24:03;122.67;;;48.83;;
23270;SDS011;11804;51.118;17.058;2022-12-17T08:26:51;129.03;;;49.40;;
23270;SDS011;11804;51.118;17.058;2022-12-17T08:29:36;117.87;;;46.73;;
23270;SDS011;11804;51.118;17.058;2022-12-17T08:32:22;145.20;;;58.03;;
23270;SDS011;11804;51.118;17.058;2022-12-17T08:35:30;159.13;;;60.60;;
23270;SDS011;11804;51.118;17.058;2022-12-17T08:38:06;159.60;;;64.10;;
23270;SDS011;11804;51.118;17.058;2022-12-17T08:40:49;143.97;;;50.47;;
23270;SDS011;11804;51.118;17.058;2022-12-17T08:43:35;194.27;;;69.27;;
23270;SDS011;11804;51.118;17.058;2022-12-17T08:46:22;126.03;;;48.07;;
23270;SDS011;11804;51.118;17.058;2022-12-17T08:49:07;124.50;;;47.60;;
23270;SDS011;11804;51.118;17.058;2022-12-17T08:51:53;116.77;;;47.70;;
23270;SDS011;11804;51.118;17.058;2022-12-17T08:54:43;158.90;;;60.03;;
23270;SDS011;11804;51.118;17.058;2022-12-17T08:57:28;128.90;;;48.83;;
23270;SDS011;11804;51.118;17.058;2022-12-17T09:00:25;123.87;;;46.73;;
23270;SDS011;11804;51.118;17.058;2022-12-17T09:03:07;118.13;;;45.67;;
23270;SDS011;11804;51.118;17.058;2022-12-17T09:05:52;106.60;;;43.13;;
23270;SDS011;11804;51.118;17.058;2022-12-17T09:08:38;105.67;;;42.03;;
23270;SDS011;11804;51.118;17.058;2022-12-17T09:11:24;104.53;;;42.17;;
23270;SDS011;11804;51.118;17.058;2022-12-17T09:14:02;120.53;;;44.57;;
23270;SDS011;11804;51.118;17.058;2022-12-17T09:16:47;122.37;;;45.67;;
23270;SDS011;11804;51.118;17.058;2022-12-17T09:19:42;120.40;;;45.90;;
23270;SDS011;11804;51.118;17.058;2022-12-17T09:22:27;123.47;;;45.20;;
23270;SDS011;11804;51.118;17.058;2022-12-17T09:25:13;123.53;;;48.50;;
23270;SDS011;11804;51.118;17.058;2022-12-17T09:28:03;129.57;;;51.07;;
23270;SDS011;11804;51.118;17.058;2022-12-17T09:30:46;134.23;;;52.13;;
23270;SDS011;11804;51.118;17.058;2022-12-17T09:33:33;153.37;;;72.27;;
23270;SDS011;11804;51.118;17.058;2022-12-17T09:36:33;122.47;;;49.53;;
23270;SDS011;11804;51.118;17.058;2022-12-17T09:39:08;118.57;;;48.13;;
23270;SDS011;11804;51.118;17.058;2022-12-17T09:42:03;115.27;;;44.47;;
23270;SDS011;11804;51.118;17.058;2022-12-17T09:50:58;100.07;;;40.50;;
23270;SDS011;11804;51.118;17.058;2022-12-17T09:53:45;110.77;;;42.47;;
23270;SDS011;11804;51.118;17.058;2022-12-17T09:56:32;115.47;;;42.53;;
23270;SDS011;11804;51.118;17.058;2022-12-17T09:59:21;109.40;;;40.50;;
23270;SDS011;11804;51.118;17.058;2022-12-17T10:02:12;112.63;;;41.23;;
23270;SDS011;11804;51.118;17.058;2022-12-17T10:05:00;121.07;;;45.53;;
23270;SDS011;11804;51.118;17.058;2022-12-17T10:07:47;101.90;;;39.63;;
23270;SDS011;11804;51.118;17.058;2022-12-17T10:10:35;113.87;;;43.30;;
23270;SDS011;11804;51.118;17.058;2022-12-17T10:13:24;112.27;;;43.23;;
23270;SDS011;11804;51.118;17.058;2022-12-17T10:19:15;103.93;;;43.00;;
23270;SDS011;11804;51.118;17.058;2022-12-17T10:22:09;166.20;;;56.37;;
23270;SDS011;11804;51.118;17.058;2022-12-17T10:28:03;131.80;;;47.20;;
23270;SDS011;11804;51.118;17.058;2022-12-17T10:30:52;122.37;;;45.27;;
23270;SDS011;11804;51.118;17.058;2022-12-17T10:33:39;117.77;;;46.83;;
23270;SDS011;11804;51.118;17.058;2022-12-17T10:36:24;121.17;;;44.63;;
23270;SDS011;11804;51.118;17.058;2022-12-17T10:39:27;114.10;;;43.70;;
23270;SDS011;11804;51.118;17.058;2022-12-17T10:42:25;123.50;;;45.60;;
23270;SDS011;11804;51.118;17.058;2022-12-17T10:48:25;130.77;;;48.03;;
23270;SDS011;11804;51.118;17.058;2022-12-17T10:51:17;130.70;;;48.27;;
23270;SDS011;11804;51.118;17.058;2022-12-17T10:54:22;129.43;;;50.50;;
23270;SDS011;11804;51.118;17.058;2022-12-17T10:57:22;143.37;;;50.67;;
23270;SDS011;11804;51.118;17.058;2022-12-17T11:06:28;133.60;;;50.90;;
23270;SDS011;11804;51.118;17.058;2022-12-17T11:09:18;153.13;;;57.87;;
23270;SDS011;11804;51.118;17.058;2022-12-17T11:12:05;183.00;;;67.43;;
23270;SDS011;11804;51.118;17.058;2022-12-17T11:14:55;133.60;;;49.97;;
23270;SDS011;11804;51.118;17.058;2022-12-17T11:17:44;118.00;;;44.07;;
23270;SDS011;11804;51.118;17.058;2022-12-17T11:20:45;117.07;;;46.37;;
23270;SDS011;11804;51.118;17.058;2022-12-17T11:23:27;119.80;;;45.70;;
23270;SDS011;11804;51.118;17.058;2022-12-17T11:26:13;117.90;;;44.47;;
23270;SDS011;11804;51.118;17.058;2022-12-17T11:29:21;106.60;;;41.70;;
23270;SDS011;11804;51.118;17.058;2022-12-17T11:41:29;110.10;;;41.37;;
23270;SDS011;11804;51.118;17.058;2022-12-17T11:44:32;110.93;;;40.07;;
23270;SDS011;11804;51.118;17.058;2022-12-17T11:51:01;107.00;;;39.70;;
23270;SDS011;11804;51.118;17.058;2022-12-17T11:53:54;105.47;;;38.83;;
23270;SDS011;11804;51.118;17.058;2022-12-17T11:56:48;107.67;;;40.17;;
23270;SDS011;11804;51.118;17.058;2022-12-17T11:59:34;107.73;;;41.10;;
23270;SDS011;11804;51.118;17.058;2022-12-17T12:05:37;106.40;;;41.97;;
23270;SDS011;11804;51.118;17.058;2022-12-17T12:11:53;112.87;;;39.60;;
23270;SDS011;11804;51.118;17.058;2022-12-17T12:15:13;116.30;;;41.67;;
23270;SDS011;11804;51.118;17.058;2022-12-17T12:27:05;116.60;;;41.07;;
23270;SDS011;11804;51.118;17.058;2022-12-17T12:30:16;116.63;;;42.07;;
23270;SDS011;11804;51.118;17.058;2022-12-17T12:35:55;124.50;;;44.50;;
23270;SDS011;11804;51.118;17.058;2022-12-17T12:38:43;113.70;;;43.07;;
23270;SDS011;11804;51.118;17.058;2022-12-17T12:41:34;123.50;;;44.23;;
23270;SDS011;11804;51.118;17.058;2022-12-17T12:50:45;121.33;;;43.33;;
23270;SDS011;11804;51.118;17.058;2022-12-17T12:56:38;116.97;;;41.40;;
23270;SDS011;11804;51.118;17.058;2022-12-17T13:02:41;118.53;;;41.97;;
23270;SDS011;11804;51.118;17.058;2022-12-17T13:05:23;113.17;;;41.57;;
23270;SDS011;11804;51.118;17.058;2022-12-17T13:08:01;118.90;;;40.33;;
23270;SDS011;11804;51.118;17.058;2022-12-17T13:10:46;109.77;;;39.80;;
23270;SDS011;11804;51.118;17.058;2022-12-17T13:19:04;115.93;;;39.37;;
23270;SDS011;11804;51.118;17.058;2022-12-17T13:21:55;116.70;;;39.50;;
23270;SDS011;11804;51.118;17.058;2022-12-17T13:24:30;109.77;;;40.83;;
23270;SDS011;11804;51.118;17.058;2022-12-17T13:27:01;105.20;;;38.33;;
23270;SDS011;11804;51.118;17.058;2022-12-17T13:29:33;112.50;;;39.57;;
23270;SDS011;11804;51.118;17.058;2022-12-17T13:38:50;104.27;;;36.37;;
23270;SDS011;11804;51.118;17.058;2022-12-17T13:41:41;105.03;;;37.60;;
23270;SDS011;11804;51.118;17.058;2022-12-17T13:44:17;115.50;;;51.30;;
23270;SDS011;11804;51.118;17.058;2022-12-17T13:46:59;96.77;;;37.67;;
23270;SDS011;11804;51.118;17.058;2022-12-17T13:49:27;99.17;;;36.47;;
23270;SDS011;11804;51.118;17.058;2022-12-17T13:52:14;100.13;;;35.90;;
23270;SDS011;11804;51.118;17.058;2022-12-17T13:54:45;94.87;;;37.30;;
23270;SDS011;11804;51.118;17.058;2022-12-17T13:57:18;107.10;;;39.23;;
23270;SDS011;11804;51.118;17.058;2022-12-17T13:59:54;107.37;;;40.70;;
23270;SDS011;11804;51.118;17.058;2022-12-17T14:02:42;103.57;;;37.57;;
23270;SDS011;11804;51.118;17.058;2022-12-17T14:05:28;102.77;;;41.47;;
23270;SDS011;11804;51.118;17.058;2022-12-17T14:08:11;112.20;;;40.93;;
23270;SDS011;11804;51.118;17.058;2022-12-17T14:10:53;101.90;;;38.20;;
23270;SDS011;11804;51.118;17.058;2022-12-17T14:13:19;90.20;;;35.17;;
23270;SDS011;11804;51.118;17.058;2022-12-17T14:15:59;96.33;;;36.07;;
23270;SDS011;11804;51.118;17.058;2022-12-17T14:18:23;92.70;;;36.23;;
23270;SDS011;11804;51.118;17.058;2022-12-17T14:20:53;98.20;;;36.97;;
23270;SDS011;11804;51.118;17.058;2022-12-17T14:23:29;102.20;;;37.73;;
23270;SDS011;11804;51.118;17.058;2022-12-17T14:25:58;109.97;;;43.93;;
23270;SDS011;11804;51.118;17.058;2022-12-17T14:31:43;111.10;;;44.33;;
23270;SDS011;11804;51.118;17.058;2022-12-17T14:34:25;99.50;;;37.57;;
23270;SDS011;11804;51.118;17.058;2022-12-17T14:36:58;93.63;;;38.43;;
23270;SDS011;11804;51.118;17.058;2022-12-17T14:39:45;97.47;;;36.80;;
23270;SDS011;11804;51.118;17.058;2022-12-17T14:42:35;100.83;;;37.60;;
23270;SDS011;11804;51.118;17.058;2022-12-17T14:45:05;98.13;;;38.37;;
23270;SDS011;11804;51.118;17.058;2022-12-17T14:48:02;91.73;;;35.93;;
23270;SDS011;11804;51.118;17.058;2022-12-17T14:50:35;103.47;;;36.73;;
23270;SDS011;11804;51.118;17.058;2022-12-17T14:56:55;89.40;;;34.73;;
23270;SDS011;11804;51.118;17.058;2022-12-17T15:01:58;93.73;;;34.53;;
23270;SDS011;11804;51.118;17.058;2022-12-17T15:04:37;103.50;;;37.70;;
23270;SDS011;11804;51.118;17.058;2022-12-17T15:07:01;92.50;;;35.70;;
23270;SDS011;11804;51.118;17.058;2022-12-17T15:09:29;95.30;;;36.77;;
23270;SDS011;11804;51.118;17.058;2022-12-17T15:12:15;84.97;;;33.67;;
23270;SDS011;11804;51.118;17.058;2022-12-17T15:14:44;83.93;;;32.40;;
23270;SDS011;11804;51.118;17.058;2022-12-17T15:17:15;81.53;;;30.97;;
23270;SDS011;11804;51.118;17.058;2022-12-17T15:19:47;78.30;;;31.40;;
23270;SDS011;11804;51.118;17.058;2022-12-17T15:25:17;80.07;;;32.30;;
23270;SDS011;11804;51.118;17.058;2022-12-17T15:27:43;77.03;;;29.53;;
23270;SDS011;11804;51.118;17.058;2022-12-17T15:30:16;80.57;;;31.30;;
23270;SDS011;11804;51.118;17.058;2022-12-17T15:32:58;85.83;;;31.23;;
23270;SDS011;11804;51.118;17.058;2022-12-17T15:35:47;74.63;;;30.70;;
23270;SDS011;11804;51.118;17.058;2022-12-17T15:38:19;76.23;;;29.07;;
23270;SDS011;11804;51.118;17.058;2022-12-17T15:40:47;74.83;;;29.53;;
23270;SDS011;11804;51.118;17.058;2022-12-17T15:43:16;78.17;;;29.80;;
23270;SDS011;11804;51.118;17.058;2022-12-17T15:45:47;71.67;;;28.33;;
23270;SDS011;11804;51.118;17.058;2022-12-17T15:48:19;75.57;;;27.17;;
23270;SDS011;11804;51.118;17.058;2022-12-17T15:50:52;79.33;;;29.13;;
23270;SDS011;11804;51.118;17.058;2022-12-17T15:53:25;76.90;;;28.80;;
23270;SDS011;11804;51.118;17.058;2022-12-17T15:56:00;82.30;;;30.60;;
23270;SDS011;11804;51.118;17.058;2022-12-17T15:58:28;76.63;;;30.80;;
23270;SDS011;11804;51.118;17.058;2022-12-17T16:00:57;72.70;;;28.73;;
23270;SDS011;11804;51.118;17.058;2022-12-17T16:03:27;70.80;;;27.27;;
23270;SDS011;11804;51.118;17.058;2022-12-17T16:05:59;67.50;;;26.97;;
23270;SDS011;11804;51.118;17.058;2022-12-17T16:08:28;64.80;;;24.37;;
23270;SDS011;11804;51.118;17.058;2022-12-17T16:10:55;67.87;;;26.70;;
23270;SDS011;11804;51.118;17.058;2022-12-17T16:13:37;70.63;;;27.33;;
23270;SDS011;11804;51.118;17.058;2022-12-17T16:16:07;76.07;;;27.20;;
23270;SDS011;11804;51.118;17.058;2022-12-17T16:18:42;70.90;;;25.57;;
23270;SDS011;11804;51.118;17.058;2022-12-17T16:21:14;79.07;;;28.67;;
23270;SDS011;11804;51.118;17.058;2022-12-17T16:23:44;74.37;;;27.90;;
23270;SDS011;11804;51.118;17.058;2022-12-17T16:26:23;81.60;;;29.53;;
23270;SDS011;11804;51.118;17.058;2022-12-17T16:28:46;79.67;;;30.10;;
23270;SDS011;11804;51.118;17.058;2022-12-17T16:31:13;85.23;;;31.90;;
23270;SDS011;11804;51.118;17.058;2022-12-17T16:33:44;78.50;;;29.87;;
23270;SDS011;11804;51.118;17.058;2022-12-17T16:36:14;65.73;;;26.57;;
23270;SDS011;11804;51.118;17.058;2022-12-17T16:38:44;66.40;;;24.43;;
23270;SDS011;11804;51.118;17.058;2022-12-17T16:41:15;71.50;;;26.40;;
23270;SDS011;11804;51.118;17.058;2022-12-17T16:43:46;71.73;;;25.87;;
23270;SDS011;11804;51.118;17.058;2022-12-17T16:49:04;70.27;;;24.93;;
23270;SDS011;11804;51.118;17.058;2022-12-17T16:51:33;67.07;;;25.10;;
23270;SDS011;11804;51.118;17.058;2022-12-17T16:54:09;68.67;;;25.10;;
23270;SDS011;11804;51.118;17.058;2022-12-17T16:56:39;72.07;;;25.57;;
23270;SDS011;11804;51.118;17.058;2022-12-17T16:59:08;71.13;;;25.30;;
23270;SDS011;11804;51.118;17.058;2022-12-17T17:01:39;70.53;;;25.57;;
23270;SDS011;11804;51.118;17.058;2022-12-17T17:04:09;69.13;;;24.90;;
23270;SDS011;11804;51.118;17.058;2022-12-17T17:06:39;62.80;;;25.10;;
23270;SDS011;11804;51.118;17.058;2022-12-17T17:09:10;74.47;;;27.53;;
23270;SDS011;11804;51.118;17.058;2022-12-17T17:11:42;69.10;;;24.57;;
23270;SDS011;11804;51.118;17.058;2022-12-17T17:14:10;71.10;;;25.67;;
23270;SDS011;11804;51.118;17.058;2022-12-17T17:16:37;77.70;;;27.90;;